Time;durP1;ratioP1;P1;durP2;ratioP2;P2;SDS_P1;SDS_P2;PMS_P1;PMS_P2;Temp;Humidity;BMP_temperature;BMP_pressure;BME280_temperature;BME280_humidity;BME280_pressure;Samples;Min_cycle;Max_cycle;Signal;HPM_P1;HPM_P2
2022/01/22 00:01:43;;;;;;;12.60;7.00;;;1.80;99.90;;;;;;4936441;29;20544;-91
2022/01/22 00:04:09;;;;;;;12.70;6.65;;;1.80;99.90;;;;;;4938552;29;20519;-91
2022/01/22 00:06:35;;;;;;;9.63;6.93;;;1.80;99.90;;;;;;4938673;29;20031;-91
2022/01/22 00:09:02;;;;;;;11.45;5.75;;;1.80;99.90;;;;;;4953607;29;20040;-92
2022/01/22 00:11:34;;;;;;;12.15;5.38;;;1.90;99.90;;;;;;4937591;29;20496;-91
2022/01/22 00:16:44;;;;;;;11.80;5.93;;;1.80;99.90;;;;;;4938035;29;20043;-91
2022/01/22 00:19:10;;;;;;;11.90;6.90;;;1.80;99.90;;;;;;4938096;29;20027;-91
2022/01/22 00:21:39;;;;;;;10.80;7.25;;;1.80;99.90;;;;;;4934441;29;20107;-91
2022/01/22 00:24:07;;;;;;;13.07;8.38;;;1.80;99.90;;;;;;4919336;28;20047;-91
2022/01/22 00:26:33;;;;;;;13.60;6.78;;;1.80;99.90;;;;;;4937471;29;20036;-91
2022/01/22 00:28:59;;;;;;;13.13;6.38;;;1.90;99.90;;;;;;4937247;29;20028;-91
2022/01/22 00:31:24;;;;;;;10.82;6.05;;;1.90;99.90;;;;;;4937497;29;20030;-91
2022/01/22 00:33:50;;;;;;;17.83;8.45;;;1.90;99.90;;;;;;4936920;29;20110;-91
2022/01/22 00:36:16;;;;;;;21.05;11.15;;;1.80;99.90;;;;;;4935496;29;20032;-92
2022/01/22 00:38:41;;;;;;;19.50;9.77;;;1.70;99.90;;;;;;4935867;29;20054;-91
2022/01/22 00:41:07;;;;;;;18.30;9.25;;;1.80;99.90;;;;;;4936471;29;20024;-91
2022/01/22 00:43:33;;;;;;;15.07;7.88;;;1.80;99.90;;;;;;4936723;29;20035;-91
2022/01/22 00:45:59;;;;;;;12.65;6.30;;;1.70;99.90;;;;;;4936325;29;20040;-91
2022/01/22 00:48:25;;;;;;;14.48;6.72;;;1.70;99.90;;;;;;4936958;29;20024;-91
2022/01/22 00:50:54;;;;;;;10.18;6.28;;;1.80;99.90;;;;;;4936637;29;20510;-92
2022/01/22 00:53:20;;;;;;;11.60;5.55;;;1.80;99.90;;;;;;4936649;29;20118;-91
2022/01/22 00:55:45;;;;;;;12.80;5.68;;;1.80;99.90;;;;;;4936344;29;20548;-89
2022/01/22 00:58:12;;;;;;;10.52;4.90;;;2.10;99.90;;;;;;4935394;29;20032;-90
2022/01/22 01:00:38;;;;;;;10.45;5.80;;;1.80;99.90;;;;;;4934984;29;20023;-89
2022/01/22 01:03:03;;;;;;;12.30;5.97;;;1.80;99.90;;;;;;4936627;29;20031;-89
2022/01/22 01:05:29;;;;;;;11.38;5.40;;;1.80;99.90;;;;;;4934631;29;20075;-90
2022/01/22 01:07:55;;;;;;;12.15;5.50;;;1.70;99.90;;;;;;4935689;29;20158;-89
2022/01/22 01:10:21;;;;;;;11.90;5.68;;;2.00;99.90;;;;;;4934756;29;20039;-89
2022/01/22 01:12:48;;;;;;;8.82;5.65;;;1.70;99.90;;;;;;4936110;29;20373;-89
2022/01/22 01:32:09;;;;;;;10.05;5.50;;;1.60;99.90;;;;;;4934233;29;20020;-89
2022/01/22 01:34:14;;;;;;;8.38;5.53;;;1.60;99.90;;;;;;4935967;29;20042;-89
2022/01/22 01:36:41;;;;;;;9.60;5.05;;;1.70;99.90;;;;;;4935917;29;20034;-89
2022/01/22 01:39:10;;;;;;;8.98;5.15;;;1.40;99.90;;;;;;4936106;29;20540;-89
2022/01/22 01:41:53;;;;;;;11.52;5.57;;;1.10;99.90;;;;;;4935707;29;20576;-89
2022/01/22 01:44:19;;;;;;;9.32;5.03;;;1.10;99.90;;;;;;4936055;29;20038;-90
2022/01/22 01:46:47;;;;;;;9.88;5.30;;;1.30;99.90;;;;;;4934848;29;20031;-89
2022/01/22 01:49:13;;;;;;;11.95;5.18;;;1.20;99.90;;;;;;4934336;29;20051;-89
2022/01/22 01:51:39;;;;;;;10.55;5.43;;;0.80;99.90;;;;;;4935659;29;20554;-89
2022/01/22 01:59:18;;;;;;;9.15;5.00;;;0.90;99.90;;;;;;4936468;29;20034;-89
2022/01/22 02:01:44;;;;;;;11.55;5.20;;;1.00;99.90;;;;;;4934579;29;20485;-89
2022/01/22 02:04:12;;;;;;;10.85;5.28;;;1.20;99.90;;;;;;4935477;29;20385;-89
2022/01/22 02:06:38;;;;;;;9.90;5.88;;;1.00;99.90;;;;;;4934357;29;20028;-89
2022/01/22 02:09:09;;;;;;;10.55;6.07;;;1.10;99.90;;;;;;4935902;29;20028;-89
2022/01/22 02:11:36;;;;;;;9.27;5.07;;;0.90;99.90;;;;;;4935360;29;20103;-89
2022/01/22 02:24:59;;;;;;;12.40;5.25;;;0.90;99.90;;;;;;4935364;29;20043;-90
2022/01/22 02:27:25;;;;;;;10.38;5.47;;;0.90;99.90;;;;;;4935108;29;20039;-89
2022/01/22 02:29:51;;;;;;;11.15;5.40;;;1.40;99.90;;;;;;4936323;29;20039;-89
2022/01/22 02:33:04;;;;;;;12.45;6.15;;;0.80;99.90;;;;;;4933981;29;20031;-90
2022/01/22 02:35:28;;;;;;;10.38;6.40;;;0.70;99.90;;;;;;4934881;29;20040;-90
2022/01/22 02:38:03;;;;;;;9.70;5.55;;;0.70;99.90;;;;;;4935150;29;20091;-89
2022/01/22 02:40:34;;;;;;;11.07;5.55;;;0.70;99.90;;;;;;4934839;29;20453;-89
2022/01/22 02:43:00;;;;;;;9.52;5.40;;;0.80;99.90;;;;;;4934806;29;20532;-89
2022/01/22 02:45:26;;;;;;;12.45;6.40;;;0.80;99.90;;;;;;4935658;29;20038;-89
2022/01/22 02:47:53;;;;;;;10.48;6.07;;;0.70;99.90;;;;;;4935592;29;20024;-89
2022/01/22 02:50:20;;;;;;;11.27;5.70;;;0.70;99.90;;;;;;4934161;29;20047;-89
2022/01/22 02:52:46;;;;;;;9.90;6.20;;;0.60;99.90;;;;;;4935970;29;20028;-89
2022/01/22 02:55:16;;;;;;;12.35;6.15;;;0.50;99.90;;;;;;4938261;29;20031;-91
2022/01/22 02:57:44;;;;;;;10.88;6.25;;;0.40;99.90;;;;;;4938812;29;20381;-90
2022/01/22 03:00:14;;;;;;;10.57;6.13;;;0.40;99.90;;;;;;4938017;29;20048;-90
2022/01/22 03:02:40;;;;;;;10.55;5.60;;;0.50;99.90;;;;;;4938550;29;20028;-90
2022/01/22 03:05:09;;;;;;;14.20;6.00;;;0.50;99.90;;;;;;4938330;29;20040;-90
2022/01/22 03:07:36;;;;;;;9.63;5.68;;;0.50;99.90;;;;;;4938398;29;20113;-89
2022/01/22 03:10:06;;;;;;;10.68;5.30;;;0.60;99.90;;;;;;4937378;29;20061;-90
2022/01/22 03:18:01;;;;;;;9.27;5.97;;;0.40;99.90;;;;;;4937709;29;20038;-90
2022/01/22 03:31:32;;;;;;;10.55;6.60;;;0.50;99.90;;;;;;4937714;29;20119;-89
2022/01/22 03:33:58;;;;;;;10.00;6.18;;;0.50;99.90;;;;;;4937486;29;20043;-89
2022/01/22 03:36:28;;;;;;;11.48;6.30;;;0.40;99.90;;;;;;4936854;29;20034;-90
2022/01/22 03:38:54;;;;;;;15.20;7.32;;;0.20;99.90;;;;;;4937803;29;20450;-90
2022/01/22 03:41:20;;;;;;;13.45;6.60;;;0.30;99.90;;;;;;4936931;29;20488;-90
2022/01/22 03:43:46;;;;;;;12.93;6.60;;;0.60;99.90;;;;;;4937264;29;20074;-89
2022/01/22 03:46:12;;;;;;;10.98;6.35;;;0.20;99.90;;;;;;4939509;29;20040;-90
2022/01/22 03:48:37;;;;;;;12.43;6.72;;;0.10;99.90;;;;;;4937025;29;20030;-89
2022/01/22 03:51:03;;;;;;;14.02;6.45;;;0.20;99.90;;;;;;4920365;29;20032;-89
2022/01/22 03:53:28;;;;;;;14.13;6.32;;;0.20;99.90;;;;;;4938011;29;20120;-89
2022/01/22 03:58:20;;;;;;;14.65;6.78;;;0.10;99.90;;;;;;4936956;29;20031;-88
2022/01/22 04:00:46;;;;;;;11.23;6.90;;;0.10;99.90;;;;;;4936233;29;20527;-90
2022/01/22 04:03:29;;;;;;;16.45;6.95;;;0.00;99.90;;;;;;4937315;29;20039;-89
2022/01/22 04:06:28;;;;;;;12.98;6.18;;;0.10;99.90;;;;;;4932579;29;20098;-89
2022/01/22 04:08:40;;;;;;;14.43;6.85;;;0.20;99.90;;;;;;4936018;29;20068;-89
2022/01/22 04:11:11;;;;;;;18.45;7.53;;;0.20;99.90;;;;;;4936128;29;20032;-90
2022/01/22 04:13:36;;;;;;;16.75;7.47;;;0.40;99.90;;;;;;4937196;29;20094;-89
2022/01/22 04:16:02;;;;;;;13.20;7.40;;;0.40;99.90;;;;;;4937098;29;20027;-89
2022/01/22 04:26:56;;;;;;;11.30;7.13;;;0.60;99.90;;;;;;4936270;29;20046;-89
2022/01/22 04:29:24;;;;;;;13.18;7.28;;;0.20;99.90;;;;;;4936462;29;20040;-90
2022/01/22 04:31:49;;;;;;;13.15;6.90;;;0.50;99.90;;;;;;4936597;29;20499;-90
2022/01/22 04:34:16;;;;;;;13.05;6.97;;;0.20;99.90;;;;;;4937291;29;20028;-89
2022/01/22 04:36:41;;;;;;;12.65;7.43;;;0.30;99.90;;;;;;4935535;29;20027;-89
2022/01/22 04:39:07;;;;;;;18.40;7.75;;;0.30;99.90;;;;;;4936887;29;20032;-90
2022/01/22 04:41:33;;;;;;;15.73;7.68;;;0.40;99.90;;;;;;4936410;29;20095;-88
2022/01/22 04:44:02;;;;;;;14.70;7.75;;;0.60;99.90;;;;;;4937035;29;20039;-89
2022/01/22 04:57:17;;;;;;;12.95;7.32;;;0.00;99.90;;;;;;4913743;29;20561;-89
2022/01/22 04:59:43;;;;;;;13.25;6.93;;;0.00;99.90;;;;;;4897861;29;20037;-89
2022/01/22 05:02:09;;;;;;;14.90;6.78;;;0.10;99.90;;;;;;4898195;29;20093;-90
2022/01/22 05:04:35;;;;;;;13.40;7.57;;;0.10;99.90;;;;;;4897671;29;20036;-90
2022/01/22 05:07:01;;;;;;;15.18;7.30;;;0.00;99.90;;;;;;4897870;29;20093;-89
2022/01/22 05:09:26;;;;;;;13.75;6.93;;;0.10;99.90;;;;;;4897853;29;20044;-89
2022/01/22 05:11:52;;;;;;;14.82;7.72;;;0.10;99.90;;;;;;4911017;29;20024;-90
2022/01/22 05:14:18;;;;;;;14.32;8.18;;;0.10;99.90;;;;;;4899601;29;20052;-89
2022/01/22 05:16:43;;;;;;;15.30;9.73;;;0.00;99.90;;;;;;4906213;29;20092;-89
2022/01/22 05:19:18;;;;;;;15.48;8.55;;;-0.10;99.90;;;;;;4908020;29;20665;-89
2022/01/22 05:21:45;;;;;;;22.10;14.98;;;0.00;99.90;;;;;;4897093;29;20035;-90
2022/01/22 05:24:16;;;;;;;18.75;12.88;;;0.00;99.90;;;;;;4898082;29;20024;-89
2022/01/22 05:39:25;;;;;;;14.95;8.57;;;-0.10;99.90;;;;;;4936192;29;20055;-90
2022/01/22 05:41:51;;;;;;;13.07;7.82;;;0.10;99.90;;;;;;4936205;29;20055;-90
2022/01/22 05:44:17;;;;;;;17.52;8.20;;;0.10;99.90;;;;;;4934620;29;20424;-90
2022/01/22 05:46:43;;;;;;;14.13;8.27;;;0.30;99.90;;;;;;4934786;29;20032;-90
2022/01/22 05:49:09;;;;;;;18.75;8.10;;;0.50;99.90;;;;;;4935098;29;20083;-90
2022/01/22 05:51:38;;;;;;;15.90;7.90;;;1.20;99.90;;;;;;4936451;29;20130;-90
2022/01/22 05:59:39;;;;;;;13.77;8.23;;;0.60;99.90;;;;;;4935439;29;20064;-90
2022/01/22 06:02:16;;;;;;;17.95;8.60;;;0.60;99.90;;;;;;4935962;29;20035;-88
2022/01/22 06:04:42;;;;;;;12.15;7.25;;;0.70;99.90;;;;;;4934299;29;20031;-87
2022/01/22 06:07:09;;;;;;;15.20;8.38;;;0.70;99.90;;;;;;4934332;29;20031;-87
2022/01/22 06:09:39;;;;;;;23.67;12.55;;;0.70;99.90;;;;;;4933143;29;20044;-86
2022/01/22 06:14:34;;;;;;;22.98;12.90;;;1.00;99.90;;;;;;4934018;29;20063;-87
2022/01/22 06:17:01;;;;;;;13.38;8.73;;;1.10;99.90;;;;;;4932899;29;20028;-87
2022/01/22 06:19:27;;;;;;;19.55;9.82;;;0.90;99.90;;;;;;4934588;29;20552;-90
2022/01/22 06:21:53;;;;;;;19.45;8.95;;;0.90;99.90;;;;;;4933873;29;20031;-87
2022/01/22 06:24:19;;;;;;;21.00;9.75;;;0.90;99.90;;;;;;4934093;29;20036;-87
2022/01/22 06:26:45;;;;;;;17.98;9.98;;;1.20;99.90;;;;;;4934852;29;20023;-87
2022/01/22 06:29:11;;;;;;;18.23;10.10;;;1.00;99.90;;;;;;4936733;29;20127;-91
2022/01/22 06:31:37;;;;;;;19.08;10.02;;;1.10;99.90;;;;;;4938318;29;20079;-91
2022/01/22 06:34:04;;;;;;;18.08;10.18;;;1.20;99.90;;;;;;4937156;29;20032;-90
2022/01/22 06:36:30;;;;;;;15.93;9.23;;;1.60;99.90;;;;;;4937962;29;20023;-90
2022/01/22 06:39:09;;;;;;;15.25;10.07;;;1.30;99.90;;;;;;4939490;29;20035;-95
2022/01/22 06:41:46;;;;;;;18.92;10.02;;;1.30;99.90;;;;;;4938646;29;20090;-94
2022/01/22 06:44:19;;;;;;;15.02;9.65;;;1.30;99.90;;;;;;4937997;29;20134;-95
2022/01/22 06:46:48;;;;;;;16.83;9.90;;;1.40;99.90;;;;;;4938372;29;20028;-93
2022/01/22 06:49:14;;;;;;;17.33;10.48;;;1.40;99.90;;;;;;4938700;29;20518;-94
2022/01/22 06:51:40;;;;;;;16.05;10.60;;;1.40;99.90;;;;;;4937496;29;20093;-93
2022/01/22 06:54:07;;;;;;;17.05;10.70;;;1.40;99.90;;;;;;4939790;29;20094;-93
2022/01/22 06:56:33;;;;;;;21.27;11.80;;;1.50;99.90;;;;;;4938343;29;20126;-93
2022/01/22 06:59:00;;;;;;;17.70;10.90;;;1.50;99.90;;;;;;4938690;29;20039;-93
2022/01/22 07:01:27;;;;;;;21.92;10.48;;;1.50;99.90;;;;;;4938516;29;20031;-93
2022/01/22 07:03:56;;;;;;;15.57;10.27;;;1.40;99.90;;;;;;4938880;29;20024;-93
2022/01/22 07:06:23;;;;;;;17.42;10.35;;;1.20;99.90;;;;;;4937884;29;20062;-93
2022/01/22 07:08:49;;;;;;;19.55;9.88;;;1.10;99.90;;;;;;4936440;29;20038;-93
2022/01/22 07:11:15;;;;;;;16.55;9.63;;;1.30;99.90;;;;;;4937947;29;20485;-93
2022/01/22 07:13:41;;;;;;;16.77;10.20;;;1.40;99.90;;;;;;4937791;29;20071;-93
2022/01/22 07:16:07;;;;;;;20.67;10.82;;;1.40;99.90;;;;;;4937317;29;20032;-93
2022/01/22 07:18:34;;;;;;;20.70;11.10;;;1.50;99.90;;;;;;4938173;29;20118;-93
2022/01/22 07:21:08;;;;;;;16.15;9.82;;;1.70;99.90;;;;;;4937262;29;20031;-93
2022/01/22 07:26:06;;;;;;;17.25;9.55;;;1.50;99.90;;;;;;4937676;29;20036;-93
2022/01/22 07:28:32;;;;;;;18.27;9.45;;;1.40;99.90;;;;;;4936473;29;20035;-93
2022/01/22 07:30:59;;;;;;;16.48;10.18;;;1.50;99.90;;;;;;4936791;29;20036;-93
2022/01/22 07:33:26;;;;;;;17.58;10.65;;;1.60;99.90;;;;;;4937718;29;20032;-93
2022/01/22 07:35:53;;;;;;;13.82;10.07;;;1.60;99.90;;;;;;4937042;29;20035;-93
2022/01/22 07:38:19;;;;;;;18.73;10.48;;;1.60;99.90;;;;;;4937506;29;20032;-93
2022/01/22 07:40:45;;;;;;;16.90;9.80;;;1.60;99.90;;;;;;4937111;29;20516;-93
2022/01/22 07:43:10;;;;;;;17.95;10.02;;;1.70;99.90;;;;;;4936487;29;20123;-93
2022/01/22 07:45:37;;;;;;;22.52;10.88;;;1.70;99.90;;;;;;4936186;29;20036;-93
2022/01/22 07:48:03;;;;;;;15.80;10.45;;;1.70;99.90;;;;;;4937424;29;20028;-93
2022/01/22 07:50:28;;;;;;;16.45;9.95;;;1.70;99.90;;;;;;4936384;29;20054;-93
2022/01/22 07:52:54;;;;;;;19.73;10.07;;;1.80;99.90;;;;;;4936537;29;20031;-94
2022/01/22 07:55:21;;;;;;;17.77;10.13;;;2.10;99.90;;;;;;4935872;29;20032;-93
2022/01/22 07:57:47;;;;;;;18.02;9.23;;;1.80;99.90;;;;;;4937583;29;20449;-93
2022/01/22 08:00:16;;;;;;;18.73;9.48;;;1.90;99.90;;;;;;4936140;29;20095;-93
2022/01/22 08:02:42;;;;;;;20.63;10.73;;;2.00;99.90;;;;;;4935544;29;20020;-92
2022/01/22 08:05:08;;;;;;;17.67;10.27;;;2.00;99.90;;;;;;4937552;29;20035;-94
2022/01/22 08:07:34;;;;;;;16.90;9.20;;;2.00;99.90;;;;;;4936618;29;20023;-94
2022/01/22 08:10:00;;;;;;;19.08;11.98;;;2.40;99.90;;;;;;4936093;29;20142;-89
2022/01/22 08:12:26;;;;;;;16.73;10.02;;;2.50;99.90;;;;;;4936326;29;20119;-95
2022/01/22 08:14:51;;;;;;;17.55;10.68;;;2.10;99.90;;;;;;4937904;29;20040;-95
2022/01/22 08:17:17;;;;;;;15.90;9.13;;;2.30;99.90;;;;;;4936074;29;20028;-93
2022/01/22 08:19:43;;;;;;;17.08;10.40;;;2.40;99.90;;;;;;4935832;29;20027;-93
2022/01/22 08:22:08;;;;;;;13.85;9.48;;;2.60;99.90;;;;;;4936736;29;20389;-95
2022/01/22 08:24:34;;;;;;;17.17;10.13;;;2.90;99.90;;;;;;4936093;29;20032;-93
2022/01/22 08:27:32;;;;;;;19.48;11.35;;;2.90;99.90;;;;;;4937266;29;20028;-94
2022/01/22 08:29:48;;;;;;;21.17;9.95;;;2.90;99.90;;;;;;4935956;29;20509;-94
2022/01/22 08:37:27;;;;;;;31.52;16.95;;;2.90;99.90;;;;;;4936794;29;20034;-93
2022/01/22 08:39:53;;;;;;;27.13;15.38;;;3.30;99.90;;;;;;4935242;29;20032;-94
2022/01/22 08:42:20;;;;;;;24.95;15.05;;;3.30;99.90;;;;;;4936209;29;20044;-94
2022/01/22 08:44:47;;;;;;;21.27;11.88;;;2.70;99.90;;;;;;4936814;29;20040;-95
2022/01/22 08:47:13;;;;;;;25.73;14.23;;;2.50;99.90;;;;;;4936286;29;20027;-94
2022/01/22 08:49:39;;;;;;;27.40;15.68;;;2.40;99.90;;;;;;4935916;29;20035;-94
2022/01/22 08:52:11;;;;;;;25.80;15.25;;;2.50;99.90;;;;;;4936226;29;20019;-94
2022/01/22 08:54:38;;;;;;;26.63;16.25;;;2.50;99.90;;;;;;4921390;29;20035;-94
2022/01/22 08:57:04;;;;;;;22.20;13.65;;;2.60;99.90;;;;;;4936873;29;20030;-94
2022/01/22 08:59:30;;;;;;;20.30;12.20;;;2.50;99.90;;;;;;4934693;29;20039;-94
2022/01/22 09:01:56;;;;;;;23.80;13.48;;;2.60;99.90;;;;;;4935452;29;20027;-95
2022/01/22 09:04:22;;;;;;;34.80;15.75;;;2.80;99.90;;;;;;4937374;29;20023;-94
2022/01/22 09:06:48;;;;;;;24.98;14.05;;;2.60;99.90;;;;;;4938205;29;20023;-94
2022/01/22 09:09:14;;;;;;;24.70;13.48;;;2.70;99.90;;;;;;4934975;29;20044;-93
2022/01/22 09:11:42;;;;;;;15.45;9.95;;;3.30;99.90;;;;;;4936936;29;20020;-94
2022/01/22 09:14:10;;;;;;;18.30;9.98;;;3.10;99.90;;;;;;4935314;29;20126;-95
2022/01/22 09:16:37;;;;;;;26.42;13.95;;;2.90;99.90;;;;;;4936803;29;20028;-94
2022/01/22 09:19:09;;;;;;;18.55;10.38;;;3.00;99.90;;;;;;4937110;29;20023;-94
2022/01/22 09:21:38;;;;;;;17.58;10.48;;;3.30;99.90;;;;;;4938391;29;20028;-94
2022/01/22 09:24:05;;;;;;;16.85;10.05;;;3.60;99.90;;;;;;4940817;29;20035;-94
2022/01/22 09:26:31;;;;;;;13.80;8.98;;;3.50;99.90;;;;;;4940431;29;20031;-94
2022/01/22 09:28:59;;;;;;;13.40;7.60;;;3.50;99.90;;;;;;4940688;29;20034;-94
2022/01/22 09:31:26;;;;;;;14.55;9.52;;;3.30;99.90;;;;;;4941280;29;20030;-94
2022/01/22 09:33:55;;;;;;;14.25;8.80;;;3.50;99.90;;;;;;4940689;29;20031;-94
2022/01/22 09:36:21;;;;;;;13.07;8.43;;;4.30;99.90;;;;;;4941059;29;20478;-94
2022/01/22 09:38:47;;;;;;;14.38;8.65;;;3.90;99.90;;;;;;4941061;29;20035;-94
2022/01/22 09:41:15;;;;;;;13.48;8.73;;;3.50;99.90;;;;;;4938361;29;20075;-94
2022/01/22 09:43:41;;;;;;;18.88;10.20;;;3.70;99.90;;;;;;4938327;29;20050;-93
2022/01/22 09:46:10;;;;;;;16.35;8.45;;;4.80;99.90;;;;;;4937100;29;20107;-93
2022/01/22 09:48:47;;;;;;;9.65;7.07;;;9.00;91.30;;;;;;4934916;29;20043;-93
2022/01/22 09:51:14;;;;;;;13.05;7.57;;;11.60;56.50;;;;;;4931301;29;20031;-92
2022/01/22 09:53:42;;;;;;;13.98;7.35;;;11.50;47.40;;;;;;4935580;29;20031;-92
2022/01/22 09:56:08;;;;;;;13.38;7.25;;;12.40;37.40;;;;;;4935385;29;20058;-92
2022/01/22 09:58:34;;;;;;;11.10;8.02;;;12.50;37.10;;;;;;4934962;29;20092;-93
2022/01/22 10:01:26;;;;;;;14.35;7.68;;;10.50;52.10;;;;;;4936109;29;20027;-93
2022/01/22 10:03:54;;;;;;;9.68;7.20;;;10.10;60.40;;;;;;4925764;29;20039;-92
2022/01/22 10:06:22;;;;;;;12.07;7.18;;;13.40;35.80;;;;;;4939169;29;20046;-93
2022/01/22 10:08:51;;;;;;;10.88;7.15;;;13.50;37.30;;;;;;4938962;29;20123;-92
2022/01/22 10:11:28;;;;;;;10.68;7.22;;;10.20;52.80;;;;;;4938865;29;20090;-93
2022/01/22 10:13:59;;;;;;;13.02;8.23;;;8.60;67.40;;;;;;4938696;29;20031;-94
2022/01/22 10:16:27;;;;;;;12.55;8.18;;;8.50;71.90;;;;;;4940115;29;20060;-93
2022/01/22 10:19:09;;;;;;;12.10;8.13;;;9.30;69.80;;;;;;4938312;29;20036;-93
2022/01/22 10:21:36;;;;;;;10.65;7.43;;;8.10;73.20;;;;;;4938614;29;20052;-93
2022/01/22 10:24:33;;;;;;;9.85;7.30;;;7.40;82.70;;;;;;4939803;29;20031;-93
2022/01/22 10:27:23;;;;;;;13.00;7.88;;;11.30;58.20;;;;;;4938500;29;20032;-92
2022/01/22 10:30:05;;;;;;;13.60;7.75;;;9.80;59.90;;;;;;4933347;29;20050;-92
2022/01/22 10:35:18;;;;;;;13.77;7.82;;;8.60;71.40;;;;;;4939717;29;20485;-93
2022/01/22 10:37:45;;;;;;;12.40;8.57;;;8.10;81.10;;;;;;4938830;29;20024;-93
2022/01/22 10:40:31;;;;;;;15.55;8.40;;;7.80;81.00;;;;;;4939873;29;20035;-93
2022/01/22 10:43:29;;;;;;;13.20;8.02;;;7.60;88.60;;;;;;4938990;29;20063;-93
2022/01/22 10:46:09;;;;;;;13.15;8.48;;;8.40;77.40;;;;;;4926549;29;20043;-93
2022/01/22 10:48:38;;;;;;;12.07;8.00;;;13.80;47.90;;;;;;4938236;29;20028;-93
2022/01/22 10:51:10;;;;;;;11.32;8.13;;;18.50;14.10;;;;;;4939213;29;20031;-92
2022/01/22 10:53:39;;;;;;;11.60;7.63;;;15.20;20.20;;;;;;4937510;29;20027;-92
2022/01/22 10:56:06;;;;;;;13.13;7.50;;;13.60;34.50;;;;;;4937797;29;20036;-92
2022/01/22 10:58:33;;;;;;;13.55;8.65;;;14.70;27.00;;;;;;4938551;29;20943;-92
2022/01/22 11:01:01;;;;;;;11.23;7.82;;;13.90;34.80;;;;;;4938628;29;20118;-93
2022/01/22 11:03:28;;;;;;;14.10;10.05;;;14.30;27.70;;;;;;4937986;29;20035;-93
2022/01/22 11:05:54;;;;;;;13.63;8.75;;;17.10;19.00;;;;;;4938868;29;20027;-93
2022/01/22 11:08:21;;;;;;;12.63;7.85;;;18.90;8.00;;;;;;4936905;29;20062;-93
2022/01/22 11:10:46;;;;;;;12.02;7.97;;;19.60;6.80;;;;;;4937727;29;20504;-93
2022/01/22 11:13:12;;;;;;;10.77;7.82;;;15.20;20.80;;;;;;4937116;29;20028;-93
2022/01/22 11:15:43;;;;;;;12.95;9.50;;;13.30;34.00;;;;;;4937079;29;20036;-94
2022/01/22 11:18:11;;;;;;;11.85;8.65;;;11.80;43.50;;;;;;4934109;29;20058;-94
2022/01/22 11:20:38;;;;;;;12.35;9.20;;;11.00;57.30;;;;;;4938182;29;20036;-92
2022/01/22 11:23:05;;;;;;;16.05;8.73;;;16.80;24.50;;;;;;4937858;29;20039;-93
2022/01/22 11:25:33;;;;;;;13.32;7.93;;;20.00;6.00;;;;;;4937142;29;20083;-92
2022/01/22 11:28:00;;;;;;;12.20;7.80;;;20.90;1.90;;;;;;4937775;29;20032;-93
2022/01/22 11:30:28;;;;;;;11.45;8.20;;;20.40;2.90;;;;;;4937104;29;20135;-93
2022/01/22 11:32:59;;;;;;;12.23;7.85;;;21.30;1.00;;;;;;4937161;29;20024;-92
2022/01/22 11:36:04;;;;;;;9.93;7.57;;;20.80;2.90;;;;;;4937738;29;20091;-93
2022/01/22 11:38:38;;;;;;;15.63;8.13;;;19.30;10.00;;;;;;4936649;29;20032;-93
2022/01/22 11:41:16;;;;;;;8.20;6.88;;;22.10;1.00;;;;;;4937668;29;20028;-93
2022/01/22 11:44:05;;;;;;;9.55;6.65;;;23.00;1.00;;;;;;4937485;29;20103;-94
2022/01/22 11:46:41;;;;;;;12.27;7.50;;;22.10;1.00;;;;;;4937186;29;20031;-93
2022/01/22 11:49:25;;;;;;;10.38;7.70;;;22.80;1.00;;;;;;4937194;29;20420;-92
2022/01/22 11:51:54;;;;;;;9.77;7.55;;;22.90;1.00;;;;;;4937443;29;20039;-93
2022/01/22 11:54:22;;;;;;;10.77;7.55;;;22.20;1.00;;;;;;4937719;29;20039;-93
2022/01/22 11:56:50;;;;;;;11.65;7.25;;;22.20;1.00;;;;;;4936428;29;20051;-93
2022/01/22 11:59:24;;;;;;;9.57;7.50;;;20.00;3.60;;;;;;4937014;29;20028;-93
2022/01/22 12:01:56;;;;;;;10.68;7.85;;;22.10;1.00;;;;;;4935839;29;20028;-93
2022/01/22 12:04:40;;;;;;;11.18;7.38;;;20.30;1.00;;;;;;4936086;29;20030;-92
2022/01/22 12:07:07;;;;;;;9.63;7.50;;;19.00;8.40;;;;;;4937225;29;20035;-93
2022/01/22 12:15:41;;;;;;;9.65;7.78;;;15.50;23.60;;;;;;4934548;29;20034;-93
2022/01/22 12:18:12;;;;;;;14.00;8.45;;;14.00;34.00;;;;;;4950308;29;20036;-93
2022/01/22 12:21:30;;;;;;;11.27;7.65;;;12.80;42.30;;;;;;4938312;29;20114;-93
2022/01/22 12:23:29;;;;;;;11.45;8.13;;;12.30;46.20;;;;;;4938610;29;20063;-93
2022/01/22 12:25:56;;;;;;;12.38;8.40;;;11.80;51.60;;;;;;4938047;29;20039;-93
2022/01/22 12:28:41;;;;;;;12.45;8.23;;;12.40;49.00;;;;;;4938255;29;20028;-94
2022/01/22 12:31:15;;;;;;;11.63;7.75;;;11.90;51.40;;;;;;4937135;29;20518;-93
2022/01/22 12:33:41;;;;;;;12.80;8.00;;;11.90;50.50;;;;;;4922064;29;20111;-93
2022/01/22 12:36:12;;;;;;;11.98;8.13;;;11.80;54.50;;;;;;4935850;29;20032;-92
2022/01/22 12:44:28;;;;;;;11.32;8.48;;;16.70;24.90;;;;;;4936621;29;20039;-93
2022/01/22 12:47:00;;;;;;;12.35;8.38;;;14.90;36.00;;;;;;4929536;29;20031;-92
2022/01/22 12:49:27;;;;;;;11.27;8.38;;;16.60;29.10;;;;;;4934606;29;20114;-93
2022/01/22 12:52:01;;;;;;;10.60;8.13;;;15.00;32.10;;;;;;4935307;29;20115;-93
2022/01/22 12:54:28;;;;;;;10.60;8.35;;;13.00;43.10;;;;;;4935934;29;20027;-93
2022/01/22 12:57:05;;;;;;;10.10;7.82;;;11.90;51.10;;;;;;4936934;29;20032;-93
2022/01/22 12:59:34;;;;;;;9.82;7.78;;;10.90;60.00;;;;;;4935996;29;20489;-93
2022/01/22 13:02:00;;;;;;;12.45;8.25;;;11.10;59.60;;;;;;4936206;29;20036;-93
2022/01/22 13:04:25;;;;;;;10.60;8.20;;;11.30;61.70;;;;;;4934719;29;20362;-93
2022/01/22 13:06:53;;;;;;;12.15;8.68;;;11.90;58.00;;;;;;4935124;29;20361;-92
2022/01/22 13:09:19;;;;;;;12.57;8.23;;;12.10;57.20;;;;;;4935925;29;20039;-93
2022/01/22 13:11:49;;;;;;;12.68;8.52;;;12.30;52.80;;;;;;4935075;29;20031;-92
2022/01/22 13:14:28;;;;;;;11.15;8.10;;;12.00;56.00;;;;;;4935825;29;20039;-93
2022/01/22 13:16:56;;;;;;;11.70;8.38;;;13.60;49.30;;;;;;4935923;29;20543;-93
2022/01/22 13:19:24;;;;;;;14.90;8.80;;;12.40;49.90;;;;;;4936051;29;20067;-93
2022/01/22 13:21:56;;;;;;;14.93;8.93;;;12.10;52.80;;;;;;4936715;29;20031;-93
2022/01/22 13:24:28;;;;;;;13.20;9.35;;;11.20;58.70;;;;;;4935314;29;20031;-93
2022/01/22 13:27:09;;;;;;;12.50;9.13;;;10.60;61.20;;;;;;4934408;29;20031;-93
2022/01/22 13:29:44;;;;;;;14.95;9.38;;;10.10;71.10;;;;;;4935627;29;20105;-93
2022/01/22 13:49:26;;;;;;;11.85;8.52;;;11.20;62.90;;;;;;4838814;29;20125;-93
2022/01/22 13:52:15;;;;;;;13.80;8.57;;;12.80;54.80;;;;;;4827813;29;20558;-93
2022/01/22 13:54:44;;;;;;;12.82;8.68;;;12.90;50.20;;;;;;4826524;29;20109;-93
2022/01/22 13:57:11;;;;;;;12.00;9.50;;;12.00;55.70;;;;;;4825926;29;20094;-94
2022/01/22 13:59:42;;;;;;;12.68;9.27;;;11.60;63.20;;;;;;4836493;29;20129;-93
2022/01/22 14:05:00;;;;;;;14.68;9.88;;;10.00;75.40;;;;;;4831982;29;20035;-93
2022/01/22 14:07:33;;;;;;;15.18;9.18;;;9.50;78.60;;;;;;4831265;29;20546;-94
2022/01/22 14:10:03;;;;;;;13.30;9.07;;;9.30;83.30;;;;;;4839660;29;20103;-93
2022/01/22 14:15:14;;;;;;;16.02;9.95;;;9.10;87.90;;;;;;4843594;29;20392;-92
2022/01/22 14:18:10;;;;;;;12.10;9.23;;;9.20;88.20;;;;;;4895374;29;20060;-93
2022/01/22 14:20:54;;;;;;;14.55;9.95;;;9.20;86.90;;;;;;4877109;29;20107;-93
2022/01/22 14:23:22;;;;;;;15.90;10.85;;;9.20;87.40;;;;;;4892381;29;20382;-94
2022/01/22 14:26:09;;;;;;;15.27;9.80;;;9.70;88.50;;;;;;4928181;29;20119;-93
2022/01/22 14:28:47;;;;;;;13.82;9.30;;;8.90;90.70;;;;;;4935166;29;20028;-93
2022/01/22 14:31:29;;;;;;;13.57;9.77;;;9.00;96.10;;;;;;4933952;29;20034;-94
2022/01/22 14:33:58;;;;;;;15.57;8.65;;;9.10;90.60;;;;;;4922166;29;20095;-93
2022/01/22 14:36:27;;;;;;;14.30;8.40;;;9.00;90.50;;;;;;4934511;29;20111;-93
2022/01/22 14:39:28;;;;;;;13.55;9.05;;;8.80;91.20;;;;;;4935386;29;20043;-93
2022/01/22 14:44:46;;;;;;;16.63;9.77;;;8.50;92.70;;;;;;4934927;29;20118;-93
2022/01/22 14:47:14;;;;;;;17.83;9.32;;;8.70;94.20;;;;;;4934865;29;20480;-92
2022/01/22 14:49:46;;;;;;;15.30;8.98;;;8.10;95.00;;;;;;4937252;29;20039;-93
2022/01/22 14:52:13;;;;;;;15.10;10.07;;;8.00;96.70;;;;;;4938443;29;20028;-93
2022/01/22 14:54:44;;;;;;;15.52;9.02;;;8.10;96.60;;;;;;4923561;29;20024;-94
2022/01/22 14:57:13;;;;;;;12.63;9.02;;;8.20;95.80;;;;;;4934080;29;20392;-93
2022/01/22 14:59:42;;;;;;;15.55;9.95;;;8.10;96.40;;;;;;4937210;29;20370;-93
2022/01/22 15:02:08;;;;;;;13.07;8.57;;;7.70;98.70;;;;;;4937836;29;20110;-93
2022/01/22 15:04:36;;;;;;;15.20;9.02;;;7.80;98.90;;;;;;4937371;29;20200;-93
2022/01/22 15:07:06;;;;;;;12.77;8.93;;;7.80;98.60;;;;;;4937528;29;20064;-93
2022/01/22 15:09:33;;;;;;;13.13;8.70;;;7.80;98.80;;;;;;4937592;29;20172;-93
2022/01/22 15:12:02;;;;;;;13.57;8.23;;;7.80;98.80;;;;;;4938469;29;20485;-93
2022/01/22 15:14:29;;;;;;;16.52;9.57;;;7.60;99.70;;;;;;4937446;29;20039;-93
2022/01/22 15:19:39;;;;;;;13.98;9.05;;;7.90;99.90;;;;;;4938113;29;20032;-93